createdAt,value
2023-02-23T00:01:28.721Z,14.54
2023-02-23T00:03:58.967Z,14.48
2023-02-23T00:06:30.153Z,14.44
2023-02-23T00:09:01.253Z,14.47
2023-02-23T00:11:29.787Z,14.49
2023-02-23T00:13:57.841Z,14.50
2023-02-23T00:16:27.335Z,14.49
2023-02-23T00:19:00.393Z,14.51
2023-02-23T00:21:30.600Z,14.56
2023-02-23T00:24:00.663Z,14.60
2023-02-23T00:26:31.708Z,14.56
2023-02-23T00:29:00.739Z,14.55
2023-02-23T00:31:30.890Z,14.60
2023-02-23T00:34:01.544Z,14.66
2023-02-23T00:36:33.342Z,14.70
2023-02-23T00:39:07.227Z,14.71
2023-02-23T00:41:35.242Z,14.72
2023-02-23T00:44:03.275Z,14.66
2023-02-23T00:46:32.784Z,14.67
2023-02-23T00:49:01.277Z,14.68
2023-02-23T00:51:31.053Z,14.70
2023-02-23T00:54:01.399Z,14.71
2023-02-23T00:56:29.807Z,14.71
2023-02-23T00:58:58.520Z,14.69
2023-02-23T01:01:27.809Z,14.68
2023-02-23T01:03:57.562Z,14.62
2023-02-23T01:06:25.987Z,14.68
2023-02-23T01:08:56.712Z,14.71
2023-02-23T01:11:28.038Z,14.75
2023-02-23T01:13:57.636Z,14.71
2023-02-23T01:16:28.660Z,14.66
2023-02-23T01:19:00.536Z,14.62
2023-02-23T01:21:30.708Z,14.56
2023-02-23T01:23:59.699Z,14.52
2023-02-23T01:26:30.294Z,14.51
2023-02-23T01:29:00.673Z,14.50
2023-02-23T01:31:30.732Z,14.56
2023-02-23T01:34:03.404Z,14.55
2023-02-23T01:36:35.676Z,14.57
2023-02-23T01:39:07.654Z,14.64
2023-02-23T01:41:37.153Z,14.70
2023-02-23T01:44:07.287Z,14.69
2023-02-23T01:46:39.135Z,14.72
2023-02-23T01:49:11.159Z,14.73
2023-02-23T01:51:43.296Z,14.78
2023-02-23T01:54:16.397Z,14.81
2023-02-23T01:56:49.302Z,14.83
2023-02-23T01:59:18.968Z,14.82
2023-02-23T02:01:48.233Z,14.82
2023-02-23T02:04:19.989Z,14.82
2023-02-23T02:06:53.560Z,14.85
2023-02-23T02:09:25.753Z,14.83
2023-02-23T02:11:55.123Z,14.82
2023-02-23T02:14:28.466Z,14.79
2023-02-23T02:17:17.926Z,14.73
2023-02-23T02:20:30.812Z,14.74
2023-02-23T02:23:41.948Z,14.74
2023-02-23T02:26:20.959Z,14.75
2023-02-23T02:29:12.016Z,14.71
2023-02-23T02:32:13.820Z,14.70
2023-02-23T02:35:19.077Z,14.69
2023-02-23T02:38:01.697Z,14.69
2023-02-23T02:40:37.787Z,14.67
2023-02-23T02:43:11.625Z,14.67
2023-02-23T02:45:50.759Z,14.67
2023-02-23T02:48:31.091Z,14.66
2023-02-23T02:51:09.722Z,14.65
2023-02-23T02:53:46.617Z,14.60
2023-02-23T02:56:19.906Z,14.64
2023-02-23T02:58:50.249Z,14.66
2023-02-23T03:01:37.309Z,14.68
2023-02-23T03:04:39.409Z,14.67
2023-02-23T03:07:33.013Z,14.68
2023-02-23T03:10:26.949Z,14.68
2023-02-23T03:13:19.977Z,14.66
2023-02-23T03:16:15.939Z,14.66
2023-02-23T03:19:13.804Z,14.60
2023-02-23T03:22:07.608Z,14.60
2023-02-23T03:24:59.767Z,14.56
2023-02-23T03:28:00.471Z,14.54
2023-02-23T03:30:50.948Z,14.55
2023-02-23T03:33:43.720Z,14.55
2023-02-23T03:36:35.482Z,14.54
2023-02-23T03:39:29.994Z,14.47
2023-02-23T03:42:17.365Z,14.40
2023-02-23T03:45:07.382Z,14.38
2023-02-23T03:47:57.112Z,14.38
2023-02-23T03:50:49.321Z,14.41
2023-02-23T03:53:40.009Z,14.45
2023-02-23T03:56:28.167Z,14.44
2023-02-23T03:59:18.011Z,14.43
2023-02-23T04:02:07.118Z,14.48
2023-02-23T04:04:53.932Z,14.48
2023-02-23T04:07:39.659Z,14.50
2023-02-23T04:10:27.503Z,14.53
2023-02-23T04:13:15.809Z,14.56
2023-02-23T04:15:49.087Z,14.56
2023-02-23T04:18:22.870Z,14.52
2023-02-23T04:20:51.018Z,14.51
2023-02-23T04:23:19.568Z,14.53
2023-02-23T04:25:47.841Z,14.53
2023-02-23T04:28:17.087Z,14.48
2023-02-23T04:30:45.648Z,14.47
2023-02-23T04:33:13.720Z,14.48
2023-02-23T04:35:43.422Z,14.48
2023-02-23T04:38:11.483Z,14.48
2023-02-23T04:40:39.518Z,14.40
2023-02-23T04:43:07.566Z,14.38
2023-02-23T04:45:35.595Z,14.37
2023-02-23T04:48:03.658Z,14.30
2023-02-23T04:50:32.674Z,14.40
2023-02-23T04:53:02.326Z,14.41
2023-02-23T04:55:30.603Z,14.44
2023-02-23T04:58:00.347Z,14.40
2023-02-23T05:00:29.478Z,14.40
2023-02-23T05:02:57.785Z,14.40
2023-02-23T05:05:25.942Z,14.32
2023-02-23T05:07:55.148Z,14.35
2023-02-23T05:10:25.178Z,14.36
2023-02-23T05:12:53.232Z,14.38
2023-02-23T05:15:21.279Z,14.40
2023-02-23T05:17:49.349Z,14.37
2023-02-23T05:20:17.443Z,14.34
2023-02-23T05:22:45.530Z,14.39
2023-02-23T05:25:13.609Z,14.40
2023-02-23T05:27:43.002Z,14.42
2023-02-23T05:30:12.266Z,14.29
2023-02-23T05:32:40.312Z,14.29
2023-02-23T05:35:09.041Z,14.30
2023-02-23T05:37:37.219Z,14.32
2023-02-23T05:40:06.160Z,14.32
2023-02-23T05:42:34.211Z,14.34
2023-02-23T05:45:04.954Z,14.36
2023-02-23T05:47:35.519Z,14.36
2023-02-23T05:50:03.556Z,14.34
2023-02-23T05:52:31.600Z,14.33
2023-02-23T05:54:59.762Z,14.30
2023-02-23T05:57:28.618Z,14.33
2023-02-23T05:59:56.756Z,14.33
2023-02-23T06:02:26.422Z,14.34
2023-02-23T06:04:55.896Z,14.36
2023-02-23T06:07:23.992Z,14.37
2023-02-23T06:09:52.021Z,14.36
2023-02-23T06:12:20.063Z,14.37
2023-02-23T06:14:48.086Z,14.39
2023-02-23T06:17:16.133Z,14.38
2023-02-23T06:19:45.672Z,14.33
2023-02-23T06:22:13.674Z,14.32
2023-02-23T06:24:41.679Z,14.30
2023-02-23T06:27:09.726Z,14.36
2023-02-23T06:29:38.802Z,14.32
2023-02-23T06:32:07.454Z,14.26
2023-02-23T06:34:35.656Z,14.28
2023-02-23T06:37:08.903Z,14.29
2023-02-23T06:39:37.272Z,14.30
2023-02-23T06:42:05.336Z,14.32
2023-02-23T06:44:35.417Z,14.32
2023-02-23T06:47:05.762Z,14.28
2023-02-23T06:49:34.128Z,14.30
2023-02-23T06:52:02.146Z,14.34
2023-02-23T06:54:31.592Z,14.35
2023-02-23T06:56:59.664Z,14.33
2023-02-23T06:59:27.691Z,14.34
2023-02-23T07:01:55.820Z,14.34
2023-02-23T07:04:24.111Z,14.38
2023-02-23T07:06:52.177Z,14.40
2023-02-23T07:09:20.201Z,14.43
2023-02-23T07:11:49.620Z,14.40
2023-02-23T07:14:26.082Z,14.39
2023-02-23T07:16:55.179Z,14.41
2023-02-23T07:19:23.416Z,14.41
2023-02-23T07:21:51.536Z,14.44
2023-02-23T07:24:19.553Z,14.50
2023-02-23T07:26:49.514Z,14.54
2023-02-23T07:29:17.827Z,14.58
2023-02-23T07:31:45.997Z,14.64
2023-02-23T07:34:14.276Z,14.67
2023-02-23T07:36:42.374Z,14.69
2023-02-23T07:39:10.488Z,14.71
2023-02-23T07:41:38.725Z,14.73
2023-02-23T07:44:17.777Z,14.77
2023-02-23T07:46:46.481Z,14.74
2023-02-23T07:49:15.016Z,14.73
2023-02-23T07:51:43.099Z,14.75
2023-02-23T07:54:11.141Z,14.75
2023-02-23T07:56:39.228Z,14.72
2023-02-23T07:59:07.321Z,14.75
2023-02-23T08:01:37.061Z,14.77
2023-02-23T08:04:05.627Z,14.79
2023-02-23T08:06:33.720Z,14.81
2023-02-23T08:09:02.143Z,14.84
2023-02-23T08:11:30.164Z,14.85
2023-02-23T08:14:00.203Z,14.85
2023-02-23T08:16:28.768Z,14.86
2023-02-23T08:18:59.588Z,14.85
2023-02-23T08:21:29.293Z,14.88
2023-02-23T08:23:57.577Z,14.89
2023-02-23T08:26:25.757Z,14.89
2023-02-23T08:28:54.335Z,14.86
2023-02-23T08:31:23.922Z,14.85
2023-02-23T08:33:52.924Z,14.89
2023-02-23T08:36:22.687Z,14.92
2023-02-23T08:38:51.116Z,14.94
2023-02-23T08:41:19.720Z,14.96
2023-02-23T08:43:48.850Z,14.96
2023-02-23T08:46:18.836Z,15.02
2023-02-23T08:48:47.387Z,15.06
2023-02-23T08:51:17.027Z,15.06
2023-02-23T08:53:46.612Z,15.08
2023-02-23T08:56:15.370Z,15.08
2023-02-23T08:58:44.590Z,15.07
2023-02-23T09:01:19.118Z,15.06
2023-02-23T09:03:47.427Z,15.08
2023-02-23T09:06:17.339Z,15.11
2023-02-23T09:08:47.096Z,15.14
2023-02-23T09:11:15.226Z,15.13
2023-02-23T09:13:43.317Z,15.16
2023-02-23T09:16:11.527Z,15.17
2023-02-23T09:18:40.129Z,15.22
2023-02-23T09:21:10.796Z,15.26
2023-02-23T09:23:39.034Z,15.30
2023-02-23T09:26:09.825Z,15.38
2023-02-23T09:28:40.721Z,15.37
2023-02-23T09:31:10.193Z,15.28
2023-02-23T09:33:38.492Z,15.26
2023-02-23T09:36:07.739Z,15.29
2023-02-23T09:38:35.872Z,15.33
2023-02-23T09:41:03.985Z,15.28
2023-02-23T09:43:38.910Z,15.15
2023-02-23T09:46:16.278Z,15.11
2023-02-23T09:48:44.381Z,15.06
2023-02-23T09:51:19.185Z,15.04
2023-02-23T09:53:52.132Z,15.03
2023-02-23T09:56:26.303Z,15.02
2023-02-23T09:58:55.886Z,15.03
2023-02-23T10:01:56.161Z,15.00
2023-02-23T10:04:28.840Z,15.08
2023-02-23T10:07:03.009Z,15.13
2023-02-23T10:09:45.370Z,15.15
2023-02-23T10:12:22.452Z,15.17
2023-02-23T10:15:04.051Z,15.19
2023-02-23T10:17:40.376Z,15.26
2023-02-23T10:20:19.766Z,15.24
2023-02-23T10:22:50.087Z,15.26
2023-02-23T10:25:24.046Z,15.30
2023-02-23T10:27:53.367Z,15.33
2023-02-23T10:30:25.320Z,15.31
2023-02-23T10:33:00.596Z,15.36
2023-02-23T10:35:31.051Z,15.38
2023-02-23T10:38:01.334Z,15.37
2023-02-23T10:40:33.053Z,15.39
2023-02-23T10:43:02.536Z,15.45
2023-02-23T10:45:37.189Z,15.43
2023-02-23T10:48:08.771Z,15.44
2023-02-23T10:50:39.589Z,15.41
2023-02-23T10:53:17.169Z,15.44
2023-02-23T10:55:46.802Z,15.55
2023-02-23T10:58:20.408Z,15.59
2023-02-23T11:00:55.665Z,15.62
2023-02-23T11:03:29.436Z,15.65
2023-02-23T11:05:57.667Z,15.65
2023-02-23T11:08:32.481Z,15.68
2023-02-23T11:11:07.440Z,15.71
2023-02-23T11:13:41.660Z,15.81
2023-02-23T11:16:13.949Z,15.83
2023-02-23T11:18:43.726Z,15.83
2023-02-23T11:21:22.479Z,15.80
2023-02-23T11:23:52.669Z,15.82
2023-02-23T11:26:30.495Z,15.84
2023-02-23T11:29:01.148Z,15.87
2023-02-23T11:31:36.187Z,15.89
2023-02-23T11:34:06.336Z,15.99
2023-02-23T11:36:36.453Z,16.02
2023-02-23T11:39:15.883Z,16.02
2023-02-23T11:41:44.043Z,16.05
2023-02-23T11:44:21.587Z,16.06
2023-02-23T11:46:52.250Z,16.12
2023-02-23T11:49:24.769Z,16.17
2023-02-23T11:51:54.465Z,16.16
2023-02-23T11:54:27.114Z,16.17
2023-02-23T11:56:58.019Z,16.15
2023-02-23T11:59:31.139Z,16.13
2023-02-23T12:02:07.816Z,16.11
2023-02-23T12:04:38.225Z,16.14
2023-02-23T12:07:41.740Z,15.99
2023-02-23T12:10:20.156Z,16.01
2023-02-23T12:13:05.011Z,16.01
2023-02-23T12:15:43.297Z,16.02
2023-02-23T12:18:23.166Z,16.02
2023-02-23T12:20:55.011Z,16.04
2023-02-23T12:23:28.074Z,16.04
2023-02-23T12:25:59.711Z,16.10
2023-02-23T12:28:34.995Z,16.04
2023-02-23T12:31:08.001Z,16.10
2023-02-23T12:33:40.841Z,16.13
2023-02-23T12:36:19.638Z,16.16
2023-02-23T12:38:52.942Z,16.17
2023-02-23T12:41:27.472Z,16.14
2023-02-23T12:44:00.451Z,16.13
2023-02-23T12:46:31.521Z,16.26
2023-02-23T12:49:07.870Z,16.52
2023-02-23T12:51:40.015Z,16.70
2023-02-23T12:54:11.743Z,16.80
2023-02-23T12:56:50.697Z,16.81
2023-02-23T12:59:33.048Z,16.81
2023-02-23T13:02:04.182Z,16.64
2023-02-23T13:05:06.172Z,16.55
2023-02-23T13:07:44.827Z,16.51
2023-02-23T13:10:24.236Z,16.50
2023-02-23T13:13:03.634Z,16.45
2023-02-23T13:15:46.567Z,16.41
2023-02-23T13:18:21.944Z,16.43
2023-02-23T13:20:55.985Z,16.42
2023-02-23T13:23:32.859Z,16.36
2023-02-23T13:26:13.009Z,16.34
2023-02-23T13:28:50.373Z,16.29
2023-02-23T13:31:25.218Z,16.24
2023-02-23T13:33:55.561Z,16.27
2023-02-23T13:36:27.269Z,16.29
2023-02-23T13:39:23.455Z,16.26
2023-02-23T13:42:01.937Z,16.10
2023-02-23T13:44:36.160Z,16.07
2023-02-23T13:47:15.284Z,15.99
2023-02-23T13:49:51.179Z,15.91
2023-02-23T13:52:32.185Z,15.83
2023-02-23T13:55:03.966Z,15.70
2023-02-23T13:57:32.951Z,15.63
2023-02-23T14:00:01.881Z,15.53
2023-02-23T14:02:37.444Z,15.44
2023-02-23T14:05:16.693Z,15.33
2023-02-23T14:07:52.306Z,15.18
2023-02-23T14:10:23.889Z,15.06
2023-02-23T14:13:08.750Z,14.89
2023-02-23T14:15:48.278Z,14.82
2023-02-23T14:18:32.167Z,14.74
2023-02-23T14:21:07.623Z,14.71
2023-02-23T14:23:52.387Z,14.69
2023-02-23T14:26:40.144Z,14.60
2023-02-23T14:29:21.705Z,14.48
2023-02-23T14:32:03.541Z,14.38
2023-02-23T14:34:50.394Z,14.20
2023-02-23T14:37:25.291Z,14.13
2023-02-23T14:39:57.115Z,14.11
2023-02-23T14:42:27.832Z,14.17
2023-02-23T14:44:57.344Z,14.12
2023-02-23T14:47:27.879Z,14.07
2023-02-23T14:49:59.210Z,14.10
2023-02-23T14:52:29.510Z,14.09
2023-02-23T14:55:17.115Z,14.05
2023-02-23T14:57:45.596Z,14.01
2023-02-23T15:00:23.022Z,13.96
2023-02-23T15:02:56.779Z,13.94
2023-02-23T15:05:27.021Z,13.94
2023-02-23T15:07:58.672Z,13.92
2023-02-23T15:10:33.122Z,13.86
2023-02-23T15:13:02.360Z,13.88
2023-02-23T15:15:30.970Z,13.85
2023-02-23T15:18:03.020Z,13.83
2023-02-23T15:23:04.461Z,13.84
2023-02-23T15:25:38.864Z,13.78
2023-02-23T15:28:22.373Z,13.76
2023-02-23T15:30:51.778Z,13.74
2023-02-23T15:33:23.675Z,13.69
2023-02-23T15:35:56.142Z,13.68
2023-02-23T15:38:42.850Z,13.76
2023-02-23T15:41:19.676Z,13.84
2023-02-23T15:43:48.006Z,13.91
2023-02-23T15:46:24.326Z,14.00
2023-02-23T15:48:54.696Z,14.01
2023-02-23T15:51:32.787Z,13.93
2023-02-23T15:54:02.180Z,13.82
2023-02-23T15:56:31.899Z,13.78
2023-02-23T15:59:04.643Z,13.76
2023-02-23T16:01:33.501Z,13.74
2023-02-23T16:04:04.131Z,13.68
2023-02-23T16:06:35.558Z,13.70
2023-02-23T16:09:19.938Z,13.60
2023-02-23T16:11:52.740Z,13.60
2023-02-23T16:14:22.203Z,13.55
2023-02-23T16:17:08.424Z,13.53
2023-02-23T16:19:41.582Z,13.51
2023-02-23T16:22:21.336Z,13.48
2023-02-23T16:24:58.786Z,13.39
2023-02-23T16:27:30.496Z,13.34
2023-02-23T16:30:01.470Z,13.35
2023-02-23T16:32:38.512Z,13.35
2023-02-23T16:35:16.350Z,13.31
2023-02-23T16:37:56.769Z,13.25
2023-02-23T16:40:25.739Z,13.25
2023-02-23T16:42:59.078Z,13.22
2023-02-23T16:45:29.532Z,13.22
2023-02-23T16:48:02.199Z,13.23
2023-02-23T16:50:30.918Z,13.18
2023-02-23T16:52:58.961Z,13.17
2023-02-23T16:55:28.776Z,13.14
2023-02-23T16:58:00.972Z,13.12
2023-02-23T17:00:30.776Z,13.11
2023-02-23T17:03:00.656Z,13.02
2023-02-23T17:05:30.568Z,12.94
2023-02-23T17:07:59.228Z,12.94
2023-02-23T17:10:29.614Z,12.95
2023-02-23T17:13:02.512Z,12.94
2023-02-23T17:15:32.775Z,12.94
2023-02-23T17:18:00.851Z,12.96
2023-02-23T17:20:29.872Z,12.93
2023-02-23T17:23:00.126Z,12.92
2023-02-23T17:25:30.322Z,12.95
2023-02-23T17:28:00.948Z,12.95
2023-02-23T17:30:30.588Z,12.93
2023-02-23T17:33:00.381Z,12.93
2023-02-23T17:35:33.601Z,12.95
2023-02-23T17:38:02.231Z,12.99
2023-02-23T17:40:31.286Z,12.92
2023-02-23T17:43:02.016Z,12.81
2023-02-23T17:45:30.584Z,12.79
2023-02-23T17:47:59.494Z,12.74
2023-02-23T17:50:28.108Z,12.69
2023-02-23T17:52:56.496Z,12.65
2023-02-23T17:55:25.761Z,12.64
2023-02-23T17:57:54.012Z,12.65
2023-02-23T18:00:25.087Z,12.70
2023-02-23T18:02:53.310Z,12.66
2023-02-23T18:05:21.869Z,12.66
2023-02-23T18:07:50.015Z,12.58
2023-02-23T18:10:18.526Z,12.56
2023-02-23T18:12:46.678Z,12.47
2023-02-23T18:15:14.744Z,12.41
2023-02-23T18:17:44.371Z,12.33
2023-02-23T18:20:15.317Z,12.19
2023-02-23T18:22:43.670Z,12.08
2023-02-23T18:25:21.502Z,11.97
2023-02-23T18:27:53.960Z,11.85
2023-02-23T18:30:23.442Z,11.73
2023-02-23T18:32:56.192Z,11.63
2023-02-23T18:35:24.404Z,11.55
2023-02-23T18:37:52.758Z,11.44
2023-02-23T18:40:23.934Z,11.36
2023-02-23T18:42:52.204Z,11.26
2023-02-23T18:45:20.336Z,11.16
2023-02-23T18:47:48.774Z,11.05
2023-02-23T18:50:19.692Z,10.94
2023-02-23T18:52:51.534Z,10.83
2023-02-23T18:55:22.087Z,10.69
2023-02-23T18:57:50.990Z,10.62
2023-02-23T19:00:20.059Z,10.56
2023-02-23T19:02:48.775Z,10.53
2023-02-23T19:05:20.725Z,10.51
2023-02-23T19:07:51.226Z,10.56
2023-02-23T19:10:19.470Z,10.62
2023-02-23T19:12:47.668Z,10.68
2023-02-23T19:15:16.545Z,10.75
2023-02-23T19:17:46.395Z,10.84
2023-02-23T19:20:15.525Z,10.87
2023-02-23T19:22:43.799Z,10.93
2023-02-23T19:25:14.562Z,10.94
2023-02-23T19:27:44.526Z,10.99
2023-02-23T19:30:14.624Z,11.03
2023-02-23T19:32:44.081Z,11.09
2023-02-23T19:35:15.706Z,11.11
2023-02-23T19:37:48.716Z,11.12
2023-02-23T19:40:20.698Z,11.16
2023-02-23T19:42:50.145Z,11.19
2023-02-23T19:45:19.345Z,11.22
2023-02-23T19:47:47.387Z,11.20
2023-02-23T19:50:17.426Z,11.22
2023-02-23T19:52:46.222Z,11.19
2023-02-23T19:55:14.677Z,11.20
2023-02-23T19:57:44.205Z,11.19
2023-02-23T20:00:13.927Z,11.22
2023-02-23T20:02:43.789Z,11.25
2023-02-23T20:05:13.174Z,11.28
2023-02-23T20:07:42.002Z,11.30
2023-02-23T20:10:13.994Z,11.34
2023-02-23T20:12:43.689Z,11.36
2023-02-23T20:15:14.784Z,11.37
2023-02-23T20:17:43.272Z,11.38
2023-02-23T20:20:12.606Z,11.40
2023-02-23T20:22:42.248Z,11.39
2023-02-23T20:25:16.476Z,11.38
2023-02-23T20:27:46.800Z,11.33
2023-02-23T20:30:15.478Z,11.27
2023-02-23T20:32:43.737Z,11.20
2023-02-23T20:35:14.139Z,11.16
2023-02-23T20:37:42.479Z,11.01
2023-02-23T20:40:17.052Z,10.95
2023-02-23T20:42:48.807Z,10.84
2023-02-23T20:45:19.742Z,10.78
2023-02-23T20:47:52.006Z,10.70
2023-02-23T20:50:21.984Z,10.64
2023-02-23T20:52:50.683Z,10.59
2023-02-23T20:55:19.891Z,10.59
2023-02-23T20:57:49.786Z,10.64
2023-02-23T21:00:22.810Z,10.70
2023-02-23T21:02:55.542Z,10.74
2023-02-23T21:05:25.362Z,10.71
2023-02-23T21:07:53.626Z,10.70
2023-02-23T21:10:21.746Z,10.69
2023-02-23T21:12:53.065Z,10.69
2023-02-23T21:15:21.142Z,10.73
2023-02-23T21:17:50.554Z,10.79
2023-02-23T21:20:20.931Z,10.84
2023-02-23T21:22:50.206Z,10.88
2023-02-23T21:25:20.411Z,10.92
2023-02-23T21:27:49.272Z,10.93
2023-02-23T21:30:21.740Z,10.95
2023-02-23T21:32:50.909Z,10.95
2023-02-23T21:35:20.070Z,10.94
2023-02-23T21:37:48.369Z,10.90
2023-02-23T21:40:20.564Z,10.88
2023-02-23T21:42:49.713Z,10.93
2023-02-23T21:45:20.762Z,10.96
2023-02-23T21:47:50.421Z,11.00
2023-02-23T21:50:20.202Z,11.02
2023-02-23T21:52:48.789Z,11.02
2023-02-23T21:55:22.398Z,11.05
2023-02-23T21:57:51.052Z,11.09
2023-02-23T22:00:21.055Z,11.16
2023-02-23T22:02:49.660Z,11.23
2023-02-23T22:05:19.154Z,11.29
2023-02-23T22:07:51.644Z,11.31
2023-02-23T22:10:21.325Z,11.36
2023-02-23T22:12:53.590Z,11.39
2023-02-23T22:15:27.598Z,11.41
2023-02-23T22:17:56.133Z,11.39
2023-02-23T22:20:25.436Z,11.41
2023-02-23T22:22:53.500Z,11.40
2023-02-23T22:25:21.709Z,11.34
2023-02-23T22:27:49.745Z,11.37
2023-02-23T22:30:20.242Z,11.39
2023-02-23T22:32:50.066Z,11.39
2023-02-23T22:35:18.353Z,11.39
2023-02-23T22:37:46.366Z,11.33
2023-02-23T22:40:15.765Z,11.38
2023-02-23T22:42:48.200Z,11.39
2023-02-23T22:45:17.266Z,11.40
2023-02-23T22:47:45.613Z,11.40
2023-02-23T22:50:17.972Z,11.36
2023-02-23T22:52:46.841Z,11.37
2023-02-23T22:55:14.973Z,11.31
2023-02-23T22:57:43.025Z,11.28
2023-02-23T23:00:12.995Z,11.32
2023-02-23T23:02:41.105Z,11.37
2023-02-23T23:05:10.023Z,11.41
2023-02-23T23:07:39.556Z,11.40
2023-02-23T23:10:12.098Z,11.39
2023-02-23T23:12:40.970Z,11.34
2023-02-23T23:15:14.840Z,11.28
2023-02-23T23:17:48.203Z,11.31
2023-02-23T23:20:18.794Z,11.31
2023-02-23T23:22:49.923Z,11.31
2023-02-23T23:25:22.868Z,11.18
2023-02-23T23:27:53.606Z,11.22
2023-02-23T23:30:25.939Z,11.25
2023-02-23T23:32:54.353Z,11.24
2023-02-23T23:35:23.015Z,11.22
2023-02-23T23:37:52.608Z,11.25
2023-02-23T23:40:24.413Z,11.19
2023-02-23T23:42:53.222Z,11.15
2023-02-23T23:45:25.185Z,11.08
2023-02-23T23:47:53.338Z,11.01
2023-02-23T23:50:26.662Z,11.02
2023-02-23T23:52:57.124Z,10.95
2023-02-23T23:55:31.284Z,10.93
2023-02-23T23:58:00.271Z,10.79
